Terminal Aerodrome Forecast
Issued by NWS Greer, SC

Home | Current Version | Previous Version | Text Only | Print | Product List | Glossary On
Versions: 1 2 3 4 5 6 7 8 9 10 11 12 13 14 15 16 17 18 19 20 21 22 23 24 25 26 27 28 29
000
FTUS42 KGSP 261443 AAB
TAFCLT
TAF AMD
KCLT 261443Z 2615/2712 14005KT P6SM FEW250
      TEMPO 2615/2617 SCT015
     FM261700 21006KT P6SM SCT250
     FM270000 17006KT P6SM BKN250=

USA.gov is the U.S. government's official web portal to all federal, state and local government web resources and services.